sensor_id;sensor_type;location;lat;lon;timestamp;pressure;altitude;pressure_sealevel;temperature;humidity
80892;BME280;70343;51.530;5.050;2023-08-07T00:01:12;101403.69;;;13.95;98.30
80892;BME280;70343;51.530;5.050;2023-08-07T00:03:38;101404.09;;;13.92;99.23
80892;BME280;70343;51.530;5.050;2023-08-07T00:06:03;101400.50;;;14.00;99.88
80892;BME280;70343;51.530;5.050;2023-08-07T00:08:28;101405.69;;;13.93;98.62
80892;BME280;70343;51.530;5.050;2023-08-07T00:11:05;101400.47;;;13.93;98.01
80892;BME280;70343;51.530;5.050;2023-08-07T00:13:30;101407.72;;;13.91;97.39
80892;BME280;70343;51.530;5.050;2023-08-07T00:15:56;101402.44;;;13.85;97.91
80892;BME280;70343;51.530;5.050;2023-08-07T00:18:21;101405.31;;;13.96;98.16
80892;BME280;70343;51.530;5.050;2023-08-07T00:20:47;101406.94;;;13.97;98.76
80892;BME280;70343;51.530;5.050;2023-08-07T00:23:12;101403.50;;;13.97;99.01
80892;BME280;70343;51.530;5.050;2023-08-07T00:25:38;101398.84;;;13.92;97.49
80892;BME280;70343;51.530;5.050;2023-08-07T00:28:03;101404.28;;;13.91;97.66
80892;BME280;70343;51.530;5.050;2023-08-07T00:30:29;101403.47;;;13.90;98.17
80892;BME280;70343;51.530;5.050;2023-08-07T00:32:54;101405.09;;;13.91;96.88
80892;BME280;70343;51.530;5.050;2023-08-07T00:35:20;101405.50;;;13.95;97.59
80892;BME280;70343;51.530;5.050;2023-08-07T00:37:45;101400.41;;;13.87;97.66
80892;BME280;70343;51.530;5.050;2023-08-07T00:40:11;101412.34;;;13.89;98.47
80892;BME280;70343;51.530;5.050;2023-08-07T00:42:37;101412.53;;;13.88;96.86
80892;BME280;70343;51.530;5.050;2023-08-07T00:45:02;101408.50;;;13.85;97.33
80892;BME280;70343;51.530;5.050;2023-08-07T00:47:28;101412.34;;;13.89;99.01
80892;BME280;70343;51.530;5.050;2023-08-07T00:49:54;101406.09;;;13.90;98.43
80892;BME280;70343;51.530;5.050;2023-08-07T00:52:21;101407.50;;;13.86;97.49
80892;BME280;70343;51.530;5.050;2023-08-07T00:54:46;101404.88;;;13.86;98.26
80892;BME280;70343;51.530;5.050;2023-08-07T00:57:13;101405.88;;;13.85;97.80
80892;BME280;70343;51.530;5.050;2023-08-07T00:59:41;101416.97;;;13.81;97.77
80892;BME280;70343;51.530;5.050;2023-08-07T01:02:07;101412.13;;;13.84;98.18
80892;BME280;70343;51.530;5.050;2023-08-07T01:04:33;101422.22;;;13.87;98.65
80892;BME280;70343;51.530;5.050;2023-08-07T01:06:59;101425.25;;;13.91;98.71
80892;BME280;70343;51.530;5.050;2023-08-07T01:09:25;101432.69;;;13.87;95.75
80892;BME280;70343;51.530;5.050;2023-08-07T01:14:52;101417.22;;;13.92;98.18
80892;BME280;70343;51.530;5.050;2023-08-07T01:17:22;101419.59;;;13.87;95.36
80892;BME280;70343;51.530;5.050;2023-08-07T01:19:49;101419.22;;;13.90;95.15
80892;BME280;70343;51.530;5.050;2023-08-07T01:22:16;101424.66;;;13.95;97.10
80892;BME280;70343;51.530;5.050;2023-08-07T01:24:44;101432.91;;;13.86;96.07
80892;BME280;70343;51.530;5.050;2023-08-07T01:32:28;101439.22;;;13.98;96.91
80892;BME280;70343;51.530;5.050;2023-08-07T01:34:57;101452.53;;;13.96;96.40
80892;BME280;70343;51.530;5.050;2023-08-07T01:37:26;101432.69;;;13.87;98.31
80892;BME280;70343;51.530;5.050;2023-08-07T01:39:54;101441.19;;;13.89;98.29
80892;BME280;70343;51.530;5.050;2023-08-07T01:42:20;101438.97;;;13.93;99.37
80892;BME280;70343;51.530;5.050;2023-08-07T01:44:46;101437.31;;;13.85;99.13
80892;BME280;70343;51.530;5.050;2023-08-07T01:47:12;101438.34;;;13.84;99.10
80892;BME280;70343;51.530;5.050;2023-08-07T01:49:38;101432.28;;;13.84;99.88
80892;BME280;70343;51.530;5.050;2023-08-07T01:52:06;101433.09;;;13.84;100.00
80892;BME280;70343;51.530;5.050;2023-08-07T01:54:32;101426.03;;;13.85;99.83
80892;BME280;70343;51.530;5.050;2023-08-07T01:56:58;101430.91;;;13.88;100.00
80892;BME280;70343;51.530;5.050;2023-08-07T01:59:23;101428.06;;;13.89;100.00
80892;BME280;70343;51.530;5.050;2023-08-07T02:01:49;101427.47;;;13.87;99.65
80892;BME280;70343;51.530;5.050;2023-08-07T02:04:14;101428.06;;;13.89;98.71
80892;BME280;70343;51.530;5.050;2023-08-07T02:06:40;101433.09;;;13.84;99.35
80892;BME280;70343;51.530;5.050;2023-08-07T02:09:05;101433.47;;;13.81;97.91
80892;BME280;70343;51.530;5.050;2023-08-07T02:11:31;101437.13;;;13.87;100.00
80892;BME280;70343;51.530;5.050;2023-08-07T02:13:56;101441.94;;;13.83;98.76
80892;BME280;70343;51.530;5.050;2023-08-07T02:16:22;101444.38;;;13.85;100.00
80892;BME280;70343;51.530;5.050;2023-08-07T02:18:47;101439.56;;;13.88;100.00
80892;BME280;70343;51.530;5.050;2023-08-07T02:21:13;101441.78;;;13.91;98.53
80892;BME280;70343;51.530;5.050;2023-08-07T02:23:38;101448.44;;;13.87;97.24
80892;BME280;70343;51.530;5.050;2023-08-07T02:26:04;101437.38;;;13.92;98.71
80892;BME280;70343;51.530;5.050;2023-08-07T02:28:29;101442.19;;;13.88;96.94
80892;BME280;70343;51.530;5.050;2023-08-07T02:30:55;101442.59;;;13.92;97.87
80892;BME280;70343;51.530;5.050;2023-08-07T02:33:20;101442.19;;;13.95;98.62
80892;BME280;70343;51.530;5.050;2023-08-07T02:35:46;101444.41;;;13.91;97.84
80892;BME280;70343;51.530;5.050;2023-08-07T02:38:11;101443.59;;;13.91;98.68
80892;BME280;70343;51.530;5.050;2023-08-07T02:40:37;101440.97;;;13.91;98.13
80892;BME280;70343;51.530;5.050;2023-08-07T02:43:03;101440.97;;;13.91;97.96
80892;BME280;70343;51.530;5.050;2023-08-07T02:45:28;101434.94;;;13.90;97.89
80892;BME280;70343;51.530;5.050;2023-08-07T02:47:54;101433.94;;;13.91;98.09
80892;BME280;70343;51.530;5.050;2023-08-07T02:50:19;101444.66;;;13.96;98.52
80892;BME280;70343;51.530;5.050;2023-08-07T02:52:45;101440.97;;;13.91;96.00
80892;BME280;70343;51.530;5.050;2023-08-07T02:55:11;101436.34;;;13.93;98.24
80892;BME280;70343;51.530;5.050;2023-08-07T02:57:36;101444.66;;;13.96;97.81
80892;BME280;70343;51.530;5.050;2023-08-07T03:00:02;101439.59;;;13.95;97.42
80892;BME280;70343;51.530;5.050;2023-08-07T03:02:28;101439.22;;;13.98;97.26
80892;BME280;70343;51.530;5.050;2023-08-07T03:04:54;101434.34;;;13.95;97.12
80892;BME280;70343;51.530;5.050;2023-08-07T03:07:19;101441.59;;;13.93;96.86
80892;BME280;70343;51.530;5.050;2023-08-07T03:09:46;101441.59;;;13.86;96.52
80892;BME280;70343;51.530;5.050;2023-08-07T03:12:12;101437.16;;;13.93;97.95
80892;BME280;70343;51.530;5.050;2023-08-07T03:14:38;101433.94;;;13.91;96.51
80892;BME280;70343;51.530;5.050;2023-08-07T03:17:03;101426.63;;;13.87;96.38
80892;BME280;70343;51.530;5.050;2023-08-07T03:19:29;101425.84;;;13.93;97.05
80892;BME280;70343;51.530;5.050;2023-08-07T03:21:54;101432.69;;;13.87;95.64
80892;BME280;70343;51.530;5.050;2023-08-07T03:24:20;101433.09;;;13.91;98.06
80892;BME280;70343;51.530;5.050;2023-08-07T03:26:46;101441.22;;;13.96;96.21
80892;BME280;70343;51.530;5.050;2023-08-07T03:29:13;101437.13;;;13.87;96.55
80892;BME280;70343;51.530;5.050;2023-08-07T03:31:38;101428.31;;;13.94;97.14
80892;BME280;70343;51.530;5.050;2023-08-07T03:34:05;101433.72;;;13.86;95.29
80892;BME280;70343;51.530;5.050;2023-08-07T03:36:30;101433.09;;;13.84;96.02
80892;BME280;70343;51.530;5.050;2023-08-07T03:38:56;101434.69;;;13.85;96.85
80892;BME280;70343;51.530;5.050;2023-08-07T03:41:21;101433.09;;;13.84;96.66
80892;BME280;70343;51.530;5.050;2023-08-07T03:43:47;101442.78;;;13.84;95.61
80892;BME280;70343;51.530;5.050;2023-08-07T03:46:13;101441.19;;;13.89;97.28
80892;BME280;70343;51.530;5.050;2023-08-07T03:48:38;101439.38;;;13.90;97.14
80892;BME280;70343;51.530;5.050;2023-08-07T03:51:05;101444.41;;;13.91;96.62
80892;BME280;70343;51.530;5.050;2023-08-07T03:53:37;101447.25;;;13.90;95.80
80892;BME280;70343;51.530;5.050;2023-08-07T03:56:02;101457.16;;;13.94;96.66
80892;BME280;70343;51.530;5.050;2023-08-07T03:58:29;101450.69;;;13.90;96.50
80892;BME280;70343;51.530;5.050;2023-08-07T04:00:55;101449.91;;;13.96;94.45
80892;BME280;70343;51.530;5.050;2023-08-07T04:03:21;101452.72;;;14.01;94.78
80892;BME280;70343;51.530;5.050;2023-08-07T04:05:47;101453.72;;;14.00;94.75
80892;BME280;70343;51.530;5.050;2023-08-07T04:08:12;101457.75;;;13.96;94.59
80892;BME280;70343;51.530;5.050;2023-08-07T04:10:38;101460.59;;;14.01;94.33
80892;BME280;70343;51.530;5.050;2023-08-07T04:13:03;101456.94;;;14.02;94.92
80892;BME280;70343;51.530;5.050;2023-08-07T04:15:29;101462.59;;;13.99;94.63
80892;BME280;70343;51.530;5.050;2023-08-07T04:17:55;101464.41;;;13.99;96.04
80892;BME280;70343;51.530;5.050;2023-08-07T04:20:21;101470.47;;;13.99;94.91
80892;BME280;70343;51.530;5.050;2023-08-07T04:22:47;101475.09;;;13.97;94.88
80892;BME280;70343;51.530;5.050;2023-08-07T04:25:12;101463.78;;;13.97;95.22
80892;BME280;70343;51.530;5.050;2023-08-07T04:27:38;101469.25;;;13.95;95.63
80892;BME280;70343;51.530;5.050;2023-08-07T04:30:05;101476.13;;;13.96;95.23
80892;BME280;70343;51.530;5.050;2023-08-07T04:32:31;101476.50;;;13.93;96.05
80892;BME280;70343;51.530;5.050;2023-08-07T04:34:56;101479.31;;;13.92;95.38
80892;BME280;70343;51.530;5.050;2023-08-07T04:37:21;101466.19;;;13.92;96.88
80892;BME280;70343;51.530;5.050;2023-08-07T04:39:47;101480.28;;;13.84;96.71
80892;BME280;70343;51.530;5.050;2023-08-07T04:42:13;101477.25;;;13.87;96.85
80892;BME280;70343;51.530;5.050;2023-08-07T04:44:38;101461.94;;;13.84;97.15
80892;BME280;70343;51.530;5.050;2023-08-07T04:47:04;101472.63;;;13.83;97.26
80892;BME280;70343;51.530;5.050;2023-08-07T04:49:30;101477.63;;;13.78;96.96
80892;BME280;70343;51.530;5.050;2023-08-07T04:51:56;101472.19;;;13.79;96.67
80892;BME280;70343;51.530;5.050;2023-08-07T04:54:21;101478.19;;;13.73;96.95
80892;BME280;70343;51.530;5.050;2023-08-07T04:56:47;101478.59;;;13.70;97.35
80892;BME280;70343;51.530;5.050;2023-08-07T04:59:12;101485.69;;;13.76;97.77
80892;BME280;70343;51.530;5.050;2023-08-07T05:01:38;101493.16;;;13.79;98.16
80892;BME280;70343;51.530;5.050;2023-08-07T05:04:04;101494.16;;;13.78;98.92
80892;BME280;70343;51.530;5.050;2023-08-07T05:06:31;101488.31;;;13.76;97.89
80892;BME280;70343;51.530;5.050;2023-08-07T05:08:56;101488.69;;;13.73;99.13
80892;BME280;70343;51.530;5.050;2023-08-07T05:11:22;101490.53;;;13.79;99.07
80892;BME280;70343;51.530;5.050;2023-08-07T05:13:47;101486.31;;;13.78;98.90
80892;BME280;70343;51.530;5.050;2023-08-07T05:16:13;101491.91;;;13.75;98.83
80892;BME280;70343;51.530;5.050;2023-08-07T05:18:38;101489.75;;;13.85;100.00
80892;BME280;70343;51.530;5.050;2023-08-07T05:21:04;101486.94;;;13.87;98.69
80892;BME280;70343;51.530;5.050;2023-08-07T05:23:29;101493.44;;;13.97;99.06
80892;BME280;70343;51.530;5.050;2023-08-07T05:25:55;101493.66;;;14.02;98.78
80892;BME280;70343;51.530;5.050;2023-08-07T05:28:21;101502.59;;;14.08;98.34
80892;BME280;70343;51.530;5.050;2023-08-07T05:30:46;101498.38;;;14.13;98.03
80892;BME280;70343;51.530;5.050;2023-08-07T05:33:11;101500.38;;;14.11;98.83
80892;BME280;70343;51.530;5.050;2023-08-07T05:35:40;101496.16;;;14.17;98.73
80892;BME280;70343;51.530;5.050;2023-08-07T05:38:05;101506.44;;;14.18;98.18
80892;BME280;70343;51.530;5.050;2023-08-07T05:40:30;101503.81;;;14.18;96.95
80892;BME280;70343;51.530;5.050;2023-08-07T05:42:56;101512.31;;;14.20;97.25
80892;BME280;70343;51.530;5.050;2023-08-07T05:45:21;101518.75;;;14.11;96.09
80892;BME280;70343;51.530;5.050;2023-08-07T05:47:47;101521.63;;;14.23;97.43
80892;BME280;70343;51.530;5.050;2023-08-07T05:50:12;101523.28;;;14.31;96.26
80892;BME280;70343;51.530;5.050;2023-08-07T05:52:38;101530.53;;;14.28;95.59
80892;BME280;70343;51.530;5.050;2023-08-07T05:55:04;101518.47;;;14.41;96.38
80892;BME280;70343;51.530;5.050;2023-08-07T05:57:29;101535.47;;;14.58;95.96
80892;BME280;70343;51.530;5.050;2023-08-07T05:59:55;101539.13;;;14.57;94.00
80892;BME280;70343;51.530;5.050;2023-08-07T06:02:20;101538.91;;;14.65;95.08
80892;BME280;70343;51.530;5.050;2023-08-07T06:04:46;101539.16;;;14.70;93.84
80892;BME280;70343;51.530;5.050;2023-08-07T06:07:12;101541.97;;;14.75;93.34
80892;BME280;70343;51.530;5.050;2023-08-07T06:09:37;101543.19;;;14.79;90.91
80892;BME280;70343;51.530;5.050;2023-08-07T06:12:03;101543.44;;;14.84;90.24
80892;BME280;70343;51.530;5.050;2023-08-07T06:14:29;101543.03;;;14.93;90.29
80892;BME280;70343;51.530;5.050;2023-08-07T06:16:55;101544.06;;;14.99;92.81
80892;BME280;70343;51.530;5.050;2023-08-07T06:19:23;101546.06;;;14.97;90.21
80892;BME280;70343;51.530;5.050;2023-08-07T06:21:49;101547.31;;;15.14;91.92
80892;BME280;70343;51.530;5.050;2023-08-07T06:24:14;101546.09;;;15.23;90.94
80892;BME280;70343;51.530;5.050;2023-08-07T06:26:40;101550.53;;;15.16;91.09
80892;BME280;70343;51.530;5.050;2023-08-07T06:29:05;101550.13;;;15.06;90.26
80892;BME280;70343;51.530;5.050;2023-08-07T06:31:31;101549.94;;;15.07;91.75
80892;BME280;70343;51.530;5.050;2023-08-07T06:33:56;101554.56;;;15.12;91.60
80892;BME280;70343;51.530;5.050;2023-08-07T06:36:22;101558.00;;;15.06;89.89
80892;BME280;70343;51.530;5.050;2023-08-07T06:38:47;101551.56;;;15.15;89.51
80892;BME280;70343;51.530;5.050;2023-08-07T06:41:13;101556.00;;;15.21;88.17
80892;BME280;70343;51.530;5.050;2023-08-07T06:43:38;101561.28;;;15.21;88.88
80892;BME280;70343;51.530;5.050;2023-08-07T06:46:04;101554.78;;;15.24;88.72
80892;BME280;70343;51.530;5.050;2023-08-07T06:48:29;101565.91;;;15.19;88.20
80892;BME280;70343;51.530;5.050;2023-08-07T06:50:55;101558.44;;;15.36;89.67
80892;BME280;70343;51.530;5.050;2023-08-07T06:53:20;101565.13;;;15.58;88.67
80892;BME280;70343;51.530;5.050;2023-08-07T06:55:46;101572.19;;;15.83;86.09
80892;BME280;70343;51.530;5.050;2023-08-07T06:58:12;101567.94;;;15.76;84.99
80892;BME280;70343;51.530;5.050;2023-08-07T07:00:37;101569.94;;;15.80;87.22
80892;BME280;70343;51.530;5.050;2023-08-07T07:03:03;101571.97;;;15.85;85.76
80892;BME280;70343;51.530;5.050;2023-08-07T07:05:29;101563.22;;;16.04;86.23
80892;BME280;70343;51.530;5.050;2023-08-07T07:07:56;101570.31;;;16.03;86.93
80892;BME280;70343;51.530;5.050;2023-08-07T07:10:21;101567.66;;;16.10;86.07
80892;BME280;70343;51.530;5.050;2023-08-07T07:12:47;101574.50;;;16.24;84.86
80892;BME280;70343;51.530;5.050;2023-08-07T07:15:13;101574.97;;;16.01;84.72
80892;BME280;70343;51.530;5.050;2023-08-07T07:17:39;101584.03;;;16.19;85.59
80892;BME280;70343;51.530;5.050;2023-08-07T07:20:05;101584.09;;;16.63;81.74
80892;BME280;70343;51.530;5.050;2023-08-07T07:22:31;101585.53;;;17.28;80.50
80892;BME280;70343;51.530;5.050;2023-08-07T07:24:56;101583.28;;;19.12;78.08
80892;BME280;70343;51.530;5.050;2023-08-07T07:27:22;101590.22;;;20.29;72.35
80892;BME280;70343;51.530;5.050;2023-08-07T07:29:48;101596.44;;;20.11;68.34
80892;BME280;70343;51.530;5.050;2023-08-07T07:32:14;101599.56;;;18.68;73.81
80892;BME280;70343;51.530;5.050;2023-08-07T07:34:39;101599.00;;;18.48;75.10
80892;BME280;70343;51.530;5.050;2023-08-07T07:37:05;101597.66;;;18.87;72.43
80892;BME280;70343;51.530;5.050;2023-08-07T07:39:31;101594.78;;;19.18;72.50
80892;BME280;70343;51.530;5.050;2023-08-07T07:41:56;101596.59;;;19.06;74.63
80892;BME280;70343;51.530;5.050;2023-08-07T07:44:22;101602.22;;;18.68;70.08
80892;BME280;70343;51.530;5.050;2023-08-07T07:46:47;101597.59;;;18.93;76.03
80892;BME280;70343;51.530;5.050;2023-08-07T07:49:13;101613.34;;;18.70;75.09
80892;BME280;70343;51.530;5.050;2023-08-07T07:51:38;101618.00;;;18.86;72.13
80892;BME280;70343;51.530;5.050;2023-08-07T07:54:05;101601.00;;;18.52;70.82
80892;BME280;70343;51.530;5.050;2023-08-07T07:56:31;101609.84;;;18.58;73.13
80892;BME280;70343;51.530;5.050;2023-08-07T07:58:56;101601.47;;;18.61;71.01
80892;BME280;70343;51.530;5.050;2023-08-07T08:01:22;101603.78;;;18.87;72.79
80892;BME280;70343;51.530;5.050;2023-08-07T08:03:48;101616.47;;;19.08;71.21
80892;BME280;70343;51.530;5.050;2023-08-07T08:06:14;101624.63;;;18.77;68.53
80892;BME280;70343;51.530;5.050;2023-08-07T08:08:39;101618.53;;;18.47;68.77
80892;BME280;70343;51.530;5.050;2023-08-07T08:11:05;101625.34;;;18.84;67.67
80892;BME280;70343;51.530;5.050;2023-08-07T08:13:30;101633.75;;;18.63;68.03
80892;BME280;70343;51.530;5.050;2023-08-07T08:15:56;101640.56;;;18.34;71.31
80892;BME280;70343;51.530;5.050;2023-08-07T08:18:21;101641.91;;;17.83;73.24
80892;BME280;70343;51.530;5.050;2023-08-07T08:20:47;101639.19;;;17.89;74.23
80892;BME280;70343;51.530;5.050;2023-08-07T08:23:12;101633.41;;;17.81;74.54
80892;BME280;70343;51.530;5.050;2023-08-07T08:25:38;101640.56;;;18.34;71.73
80892;BME280;70343;51.530;5.050;2023-08-07T08:28:03;101645.63;;;18.36;70.59
80892;BME280;70343;51.530;5.050;2023-08-07T08:30:29;101664.50;;;17.97;70.96
80892;BME280;70343;51.530;5.050;2023-08-07T08:32:55;101655.72;;;18.03;70.98
80892;BME280;70343;51.530;5.050;2023-08-07T08:35:20;101657.34;;;18.22;70.76
80892;BME280;70343;51.530;5.050;2023-08-07T08:37:46;101653.69;;;18.23;69.42
80892;BME280;70343;51.530;5.050;2023-08-07T08:40:12;101651.75;;;18.54;67.76
80892;BME280;70343;51.530;5.050;2023-08-07T08:42:39;101654.75;;;18.76;71.23
80892;BME280;70343;51.530;5.050;2023-08-07T08:45:08;101656.72;;;19.10;68.81
80892;BME280;70343;51.530;5.050;2023-08-07T08:47:36;101661.34;;;18.85;70.11
80892;BME280;70343;51.530;5.050;2023-08-07T08:50:08;101658.34;;;18.45;70.40
80892;BME280;70343;51.530;5.050;2023-08-07T08:52:35;101665.38;;;18.51;70.03
80892;BME280;70343;51.530;5.050;2023-08-07T08:55:02;101667.91;;;18.94;68.24
80892;BME280;70343;51.530;5.050;2023-08-07T08:57:28;101662.28;;;19.20;69.22
80892;BME280;70343;51.530;5.050;2023-08-07T08:59:55;101659.03;;;19.36;67.96
80892;BME280;70343;51.530;5.050;2023-08-07T09:02:21;101662.38;;;19.43;65.81
80892;BME280;70343;51.530;5.050;2023-08-07T09:04:47;101670.59;;;19.06;65.55
80892;BME280;70343;51.530;5.050;2023-08-07T09:07:15;101660.38;;;19.39;67.64
80892;BME280;70343;51.530;5.050;2023-08-07T09:09:41;101663.66;;;19.23;66.79
80892;BME280;70343;51.530;5.050;2023-08-07T09:12:16;101672.84;;;18.91;67.47
80892;BME280;70343;51.530;5.050;2023-08-07T09:14:43;101670.06;;;18.86;67.41
80892;BME280;70343;51.530;5.050;2023-08-07T09:17:10;101672.50;;;18.69;67.19
80892;BME280;70343;51.530;5.050;2023-08-07T09:19:38;101681.88;;;18.83;70.49
80892;BME280;70343;51.530;5.050;2023-08-07T09:22:04;101679.16;;;18.90;68.51
80892;BME280;70343;51.530;5.050;2023-08-07T09:24:30;101677.59;;;19.00;69.46
80892;BME280;70343;51.530;5.050;2023-08-07T09:26:56;101690.19;;;19.16;68.30
80892;BME280;70343;51.530;5.050;2023-08-07T09:29:22;101679.06;;;19.44;68.91
80892;BME280;70343;51.530;5.050;2023-08-07T09:31:47;101696.56;;;19.68;69.48
80892;BME280;70343;51.530;5.050;2023-08-07T09:34:13;101682.81;;;19.89;67.33
80892;BME280;70343;51.530;5.050;2023-08-07T09:36:41;101689.59;;;19.74;64.42
80892;BME280;70343;51.530;5.050;2023-08-07T09:39:07;101693.22;;;19.49;67.72
80892;BME280;70343;51.530;5.050;2023-08-07T09:41:32;101702.31;;;19.53;67.82
80892;BME280;70343;51.530;5.050;2023-08-07T09:44:06;101694.97;;;19.79;65.86
80892;BME280;70343;51.530;5.050;2023-08-07T09:46:40;101699.16;;;19.45;64.25
80892;BME280;70343;51.530;5.050;2023-08-07T09:49:06;101688.81;;;19.43;67.71
80892;BME280;70343;51.530;5.050;2023-08-07T09:51:44;101682.56;;;19.68;65.23
80892;BME280;70343;51.530;5.050;2023-08-07T09:54:10;101688.28;;;19.65;65.10
80892;BME280;70343;51.530;5.050;2023-08-07T09:56:36;101689.59;;;19.97;63.20
80892;BME280;70343;51.530;5.050;2023-08-07T09:59:01;101690.59;;;19.73;66.36
80892;BME280;70343;51.530;5.050;2023-08-07T10:01:27;101692.81;;;19.76;63.72
80892;BME280;70343;51.530;5.050;2023-08-07T10:03:52;101708.16;;;19.44;62.44
80892;BME280;70343;51.530;5.050;2023-08-07T10:06:19;101714.56;;;19.36;63.73
80892;BME280;70343;51.530;5.050;2023-08-07T10:08:45;101711.94;;;19.18;65.49
80892;BME280;70343;51.530;5.050;2023-08-07T10:11:11;101706.03;;;19.76;64.22
80892;BME280;70343;51.530;5.050;2023-08-07T10:13:40;101714.44;;;20.07;62.19
80892;BME280;70343;51.530;5.050;2023-08-07T10:16:06;101714.00;;;19.99;63.46
80892;BME280;70343;51.530;5.050;2023-08-07T10:18:33;101708.50;;;19.47;62.67
80892;BME280;70343;51.530;5.050;2023-08-07T10:21:00;101717.72;;;19.57;63.81
80892;BME280;70343;51.530;5.050;2023-08-07T10:23:27;101716.41;;;19.77;63.46
80892;BME280;70343;51.530;5.050;2023-08-07T10:25:53;101723.28;;;19.78;63.25
80892;BME280;70343;51.530;5.050;2023-08-07T10:28:22;101723.97;;;19.62;63.32
80892;BME280;70343;51.530;5.050;2023-08-07T10:30:49;101727.25;;;19.99;62.74
80892;BME280;70343;51.530;5.050;2023-08-07T10:33:15;101718.97;;;20.07;62.26
80892;BME280;70343;51.530;5.050;2023-08-07T10:35:46;101723.63;;;19.82;60.55
80892;BME280;70343;51.530;5.050;2023-08-07T10:38:13;101722.13;;;19.86;63.53
80892;BME280;70343;51.530;5.050;2023-08-07T10:40:59;101728.69;;;19.72;63.60
80892;BME280;70343;51.530;5.050;2023-08-07T10:43:29;101730.94;;;19.57;62.08
80892;BME280;70343;51.530;5.050;2023-08-07T10:46:26;101729.13;;;19.57;64.62
80892;BME280;70343;51.530;5.050;2023-08-07T10:48:55;101727.81;;;20.01;63.91
80892;BME280;70343;51.530;5.050;2023-08-07T10:51:29;101728.84;;;19.88;64.51
80892;BME280;70343;51.530;5.050;2023-08-07T10:53:56;101728.13;;;19.70;65.17
80892;BME280;70343;51.530;5.050;2023-08-07T10:56:35;101735.97;;;19.88;66.45
80892;BME280;70343;51.530;5.050;2023-08-07T10:59:10;101732.41;;;19.94;65.07
80892;BME280;70343;51.530;5.050;2023-08-07T11:04:08;101737.41;;;20.36;62.94
80892;BME280;70343;51.530;5.050;2023-08-07T11:06:36;101730.06;;;21.01;63.30
80892;BME280;70343;51.530;5.050;2023-08-07T11:09:03;101735.00;;;21.38;62.52
80892;BME280;70343;51.530;5.050;2023-08-07T11:11:40;101733.19;;;21.26;61.78
80892;BME280;70343;51.530;5.050;2023-08-07T11:14:10;101725.41;;;20.69;61.01
80892;BME280;70343;51.530;5.050;2023-08-07T11:16:36;101740.88;;;20.37;61.46
80892;BME280;70343;51.530;5.050;2023-08-07T11:19:03;101741.97;;;19.83;63.78
80892;BME280;70343;51.530;5.050;2023-08-07T11:21:30;101740.91;;;19.96;64.55
80892;BME280;70343;51.530;5.050;2023-08-07T11:23:56;101730.84;;;19.63;65.83
80892;BME280;70343;51.530;5.050;2023-08-07T11:26:21;101736.16;;;19.15;67.13
80892;BME280;70343;51.530;5.050;2023-08-07T11:28:47;101731.94;;;18.96;67.55
80892;BME280;70343;51.530;5.050;2023-08-07T11:31:13;101739.34;;;19.53;67.25
80892;BME280;70343;51.530;5.050;2023-08-07T11:33:40;101742.66;;;20.02;65.89
80892;BME280;70343;51.530;5.050;2023-08-07T11:36:13;101750.03;;;19.59;66.89
80892;BME280;70343;51.530;5.050;2023-08-07T11:38:40;101747.38;;;18.99;72.59
80892;BME280;70343;51.530;5.050;2023-08-07T11:41:09;101745.09;;;18.85;74.06
80892;BME280;70343;51.530;5.050;2023-08-07T11:43:35;101740.03;;;18.83;74.49
80892;BME280;70343;51.530;5.050;2023-08-07T11:46:03;101748.69;;;18.72;75.59
80892;BME280;70343;51.530;5.050;2023-08-07T11:48:31;101750.53;;;18.90;75.52
80892;BME280;70343;51.530;5.050;2023-08-07T11:50:57;101753.38;;;18.52;74.15
80892;BME280;70343;51.530;5.050;2023-08-07T11:53:34;101747.91;;;19.19;71.86
80892;BME280;70343;51.530;5.050;2023-08-07T11:56:07;101745.53;;;19.47;69.51
80892;BME280;70343;51.530;5.050;2023-08-07T11:58:39;101745.06;;;20.15;70.86
80892;BME280;70343;51.530;5.050;2023-08-07T12:01:16;101745.72;;;20.40;67.08
80892;BME280;70343;51.530;5.050;2023-08-07T12:03:49;101740.75;;;20.32;67.15
80892;BME280;70343;51.530;5.050;2023-08-07T12:06:15;101743.91;;;19.88;66.79
80892;BME280;70343;51.530;5.050;2023-08-07T12:08:41;101746.72;;;19.63;68.65
80892;BME280;70343;51.530;5.050;2023-08-07T12:11:09;101751.13;;;19.39;69.60
80892;BME280;70343;51.530;5.050;2023-08-07T12:13:38;101747.13;;;19.19;70.53
80892;BME280;70343;51.530;5.050;2023-08-07T12:16:05;101749.13;;;19.05;70.81
80892;BME280;70343;51.530;5.050;2023-08-07T12:18:31;101746.63;;;18.92;76.16
80892;BME280;70343;51.530;5.050;2023-08-07T12:21:02;101747.00;;;18.35;79.06
80892;BME280;70343;51.530;5.050;2023-08-07T12:23:28;101750.66;;;18.34;80.00
80892;BME280;70343;51.530;5.050;2023-08-07T12:25:54;101743.69;;;18.39;79.66
80892;BME280;70343;51.530;5.050;2023-08-07T12:28:19;101746.47;;;18.69;80.26
80892;BME280;70343;51.530;5.050;2023-08-07T12:30:46;101747.91;;;19.19;78.80
80892;BME280;70343;51.530;5.050;2023-08-07T12:33:12;101750.94;;;19.23;80.60
80892;BME280;70343;51.530;5.050;2023-08-07T12:35:38;101745.66;;;19.05;77.95
80892;BME280;70343;51.530;5.050;2023-08-07T12:38:03;101739.97;;;18.90;77.11
80892;BME280;70343;51.530;5.050;2023-08-07T12:40:31;101751.94;;;18.74;78.65
80892;BME280;70343;51.530;5.050;2023-08-07T12:42:58;101754.38;;;18.51;77.72
80892;BME280;70343;51.530;5.050;2023-08-07T12:45:23;101752.34;;;18.71;76.22
80892;BME280;70343;51.530;5.050;2023-08-07T12:47:49;101746.34;;;18.82;75.56
80892;BME280;70343;51.530;5.050;2023-08-07T12:50:15;101747.22;;;18.58;77.86
80892;BME280;70343;51.530;5.050;2023-08-07T12:52:40;101744.34;;;18.59;78.33
80892;BME280;70343;51.530;5.050;2023-08-07T12:55:06;101736.84;;;18.93;76.07
80892;BME280;70343;51.530;5.050;2023-08-07T12:57:33;101732.22;;;18.88;74.62